Аэропорт
Сургут (USRR)

 USRR / SGC
ЗЦ Екатеринбург
Тюмень (USTR)
Тюмень (USTR)
 61.34370, 73.40180  / 200 ft

 USRR 232330Z 34002MPS 7000 SCT041 M28/M30 Q1015 R25/450238 NOSIG RMK QFE756
 TAF USRR 231955Z 2321/2421 32003MPS 3100 BR BKN005 TEMPO 2321/2403 1000 SHSN BR BKN002 BKN015CB
АИП Таблицы, Данные, АИП_1605
показать схемы

2017 © VATRUS division